Time;durP1;ratioP1;P1;durP2;ratioP2;P2;SDS_P1;SDS_P2;PMS_P1;PMS_P2;Temp;Humidity;BMP_temperature;BMP_pressure;BME280_temperature;BME280_humidity;BME280_pressure;Samples;Min_cycle;Max_cycle;Signal;HPM_P1;HPM_P2
2021/09/30 00:00:50;;;;;;;1.52;0.65;;;;;;;;;;5006028;28;20034;-44
2021/09/30 00:03:17;;;;;;;2.10;0.60;;;;;;;;;;5007164;28;20047;-44
2021/09/30 00:05:44;;;;;;;1.25;0.60;;;;;;;;;;5004196;28;20064;-42
2021/09/30 00:08:11;;;;;;;2.83;0.57;;;;;;;;;;5007749;28;20050;-44
2021/09/30 00:10:40;;;;;;;1.63;0.80;;;;;;;;;;5009457;28;20046;-45
2021/09/30 00:13:20;;;;;;;1.30;0.70;;;;;;;;;;4991395;28;20046;-45
2021/09/30 00:32:29;;;;;;;1.23;0.55;;;;;;;;;;5004489;28;20046;-44
2021/09/30 00:40:51;;;;;;;1.20;0.60;;;;;;;;;;5029690;28;20052;-46
2021/09/30 00:46:09;;;;;;;0.85;0.60;;;;;;;;;;5012872;28;20491;-43
2021/09/30 00:48:54;;;;;;;1.10;0.60;;;;;;;;;;5012043;28;20116;-45
2021/09/30 02:28:42;;;;;;;1.30;0.50;;;;;;;;;;5007281;28;20109;-43
2021/09/30 02:58:51;;;;;;;1.75;0.70;;;;;;;;;;5003277;28;20490;-45
2021/09/30 03:01:19;;;;;;;1.58;0.60;;;;;;;;;;5003504;28;20038;-45
2021/09/30 03:03:53;;;;;;;3.47;0.90;;;;;;;;;;5016017;28;20096;-45
2021/09/30 03:06:21;;;;;;;1.38;0.60;;;;;;;;;;5007384;28;20045;-45
2021/09/30 03:08:50;;;;;;;2.95;0.77;;;;;;;;;;4996962;28;20459;-44
2021/09/30 03:11:21;;;;;;;2.25;0.80;;;;;;;;;;5021955;28;20050;-45
2021/09/30 03:13:50;;;;;;;2.75;1.02;;;;;;;;;;5027068;28;20038;-45
2021/09/30 03:18:59;;;;;;;2.00;0.70;;;;;;;;;;5010628;28;20562;-46
2021/09/30 03:24:17;;;;;;;2.70;0.70;;;;;;;;;;5004778;28;20042;-45
2021/09/30 03:26:45;;;;;;;1.50;0.80;;;;;;;;;;5009794;28;20108;-44
2021/09/30 03:29:12;;;;;;;1.55;0.73;;;;;;;;;;5010086;28;20117;-45
2021/09/30 03:31:39;;;;;;;2.90;0.75;;;;;;;;;;5015533;28;20577;-46
2021/09/30 03:34:27;;;;;;;1.63;0.65;;;;;;;;;;4999454;28;20085;-44
2021/09/30 03:36:53;;;;;;;2.72;0.70;;;;;;;;;;5009880;28;20069;-44
2021/09/30 03:39:23;;;;;;;3.42;0.75;;;;;;;;;;5010100;28;20476;-44
2021/09/30 03:41:51;;;;;;;2.97;0.90;;;;;;;;;;5003648;28;20145;-43
2021/09/30 03:44:20;;;;;;;1.52;0.70;;;;;;;;;;5001463;28;20038;-44
2021/09/30 03:46:51;;;;;;;1.63;0.60;;;;;;;;;;5015948;28;20056;-44
2021/09/30 03:49:36;;;;;;;2.38;0.70;;;;;;;;;;4996205;28;20042;-45
2021/09/30 03:59:32;;;;;;;3.67;0.90;;;;;;;;;;5018057;28;20128;-44
2021/09/30 04:02:19;;;;;;;4.50;0.65;;;;;;;;;;5015201;28;20510;-45
2021/09/30 04:04:47;;;;;;;2.83;0.90;;;;;;;;;;5014432;28;20038;-45
2021/09/30 04:07:14;;;;;;;3.97;0.80;;;;;;;;;;5013221;28;20156;-44
2021/09/30 04:09:40;;;;;;;3.83;0.98;;;;;;;;;;5013966;28;20140;-44
2021/09/30 04:12:09;;;;;;;7.50;1.20;;;;;;;;;;5013631;28;20510;-44
2021/09/30 04:14:37;;;;;;;2.55;0.70;;;;;;;;;;5012874;28;20120;-44
2021/09/30 04:17:04;;;;;;;2.90;1.00;;;;;;;;;;5000169;28;20050;-44
2021/09/30 04:19:32;;;;;;;2.72;0.82;;;;;;;;;;5025087;28;20038;-42
2021/09/30 04:21:59;;;;;;;2.58;1.00;;;;;;;;;;5013283;28;20045;-44
2021/09/30 04:24:26;;;;;;;2.88;0.77;;;;;;;;;;5013078;28;20052;-46
2021/09/30 04:26:56;;;;;;;1.17;0.80;;;;;;;;;;5013359;28;20077;-44
2021/09/30 04:29:24;;;;;;;2.78;0.98;;;;;;;;;;5012287;28;20092;-42
2021/09/30 04:31:52;;;;;;;0.90;0.60;;;;;;;;;;5036281;22;20053;-43
2021/09/30 04:34:19;;;;;;;3.42;1.38;;;;;;;;;;5031182;28;20163;-39
2021/09/30 04:36:46;;;;;;;3.65;0.80;;;;;;;;;;5018365;28;20037;-39
2021/09/30 04:39:15;;;;;;;3.45;0.80;;;;;;;;;;5034789;28;20045;-40
2021/09/30 04:41:44;;;;;;;6.35;0.88;;;;;;;;;;5023542;28;20124;-40
2021/09/30 04:44:14;;;;;;;5.45;0.95;;;;;;;;;;5026423;28;20038;-40
2021/09/30 04:46:41;;;;;;;4.07;1.00;;;;;;;;;;5029862;28;20038;-40
2021/09/30 04:49:27;;;;;;;4.00;1.00;;;;;;;;;;5023723;28;20056;-40
2021/09/30 04:51:54;;;;;;;1.98;1.00;;;;;;;;;;5051790;28;20050;-40
2021/09/30 04:54:20;;;;;;;1.70;0.90;;;;;;;;;;5032238;28;20053;-41
2021/09/30 04:56:47;;;;;;;2.22;1.10;;;;;;;;;;5031923;28;20061;-41
2021/09/30 04:59:25;;;;;;;1.85;0.82;;;;;;;;;;5019004;28;20034;-40
2021/09/30 05:02:14;;;;;;;1.80;1.00;;;;;;;;;;5027758;28;20394;-41
2021/09/30 05:04:41;;;;;;;2.00;1.00;;;;;;;;;;5033430;28;20585;-40
2021/09/30 05:07:08;;;;;;;2.55;1.00;;;;;;;;;;5031796;28;20045;-40
2021/09/30 05:09:37;;;;;;;2.83;0.88;;;;;;;;;;5046036;28;20061;-40
2021/09/30 05:12:06;;;;;;;4.75;1.08;;;;;;;;;;5031612;28;20041;-41
2021/09/30 05:14:34;;;;;;;3.03;1.00;;;;;;;;;;5047489;28;20076;-41
2021/09/30 05:17:01;;;;;;;4.15;1.00;;;;;;;;;;5028278;28;20069;-41
2021/09/30 05:19:34;;;;;;;3.70;0.88;;;;;;;;;;5029329;28;20491;-41
2021/09/30 05:22:02;;;;;;;5.25;1.00;;;;;;;;;;5047592;28;20092;-41
2021/09/30 05:24:29;;;;;;;4.05;1.10;;;;;;;;;;5022360;28;20072;-40
2021/09/30 05:26:57;;;;;;;4.03;1.42;;;;;;;;;;5029121;28;20041;-40
2021/09/30 05:29:23;;;;;;;3.67;1.13;;;;;;;;;;5025518;28;20046;-42
2021/09/30 05:32:08;;;;;;;3.55;1.30;;;;;;;;;;5029444;28;20076;-39
2021/09/30 05:34:58;;;;;;;2.40;1.08;;;;;;;;;;5006710;28;20395;-41
2021/09/30 05:37:30;;;;;;;3.30;1.00;;;;;;;;;;5029979;28;20055;-42
2021/09/30 05:39:58;;;;;;;2.80;1.00;;;;;;;;;;5029612;28;20041;-40
2021/09/30 05:42:25;;;;;;;1.70;1.08;;;;;;;;;;5030674;28;20046;-40
2021/09/30 05:44:54;;;;;;;5.47;1.60;;;;;;;;;;5020097;28;20055;-42
2021/09/30 05:47:21;;;;;;;3.40;1.00;;;;;;;;;;5045611;28;20554;-40
2021/09/30 05:49:47;;;;;;;3.75;1.20;;;;;;;;;;5025197;28;20060;-42
2021/09/30 05:52:40;;;;;;;6.03;1.20;;;;;;;;;;5028784;28;20056;-40
2021/09/30 05:55:25;;;;;;;2.72;1.00;;;;;;;;;;5029428;28;20045;-41
2021/09/30 05:57:53;;;;;;;3.88;0.90;;;;;;;;;;5045074;28;20041;-39
2021/09/30 06:16:51;;;;;;;4.30;0.93;;;;;;;;;;5007172;28;20045;-41
2021/09/30 06:19:32;;;;;;;5.57;1.25;;;;;;;;;;5004345;28;20091;-41
2021/09/30 06:22:06;;;;;;;4.70;1.30;;;;;;;;;;5044950;28;20043;-40
2021/09/30 06:24:36;;;;;;;3.83;1.20;;;;;;;;;;5046132;28;20105;-41
2021/09/30 06:27:19;;;;;;;;;;;;;;;;;;5026464;28;20051;-42
2021/09/30 06:29:46;;;;;;;4.43;1.38;;;;;;;;;;5023760;28;19921;-41
2021/09/30 06:32:13;;;;;;;3.38;1.17;;;;;;;;;;5043462;28;20048;-41
2021/09/30 06:34:58;;;;;;;5.15;2.15;;;;;;;;;;5029884;28;20395;-42
2021/09/30 06:37:37;;;;;;;4.10;1.23;;;;;;;;;;5040152;28;20048;-42
2021/09/30 06:40:04;;;;;;;7.05;1.85;;;;;;;;;;5029967;28;20049;-42
2021/09/30 06:42:32;;;;;;;3.92;1.00;;;;;;;;;;5027339;28;20029;-39
2021/09/30 06:45:12;;;;;;;4.03;1.10;;;;;;;;;;5029281;28;20128;-41
2021/09/30 06:47:42;;;;;;;4.13;1.30;;;;;;;;;;5028800;28;20037;-42
2021/09/30 06:50:22;;;;;;;3.83;1.20;;;;;;;;;;5026126;28;20038;-41
2021/09/30 06:53:09;;;;;;;4.75;1.33;;;;;;;;;;4998395;28;20517;-42
2021/09/30 06:56:02;;;;;;;2.75;1.20;;;;;;;;;;5013079;28;20118;-40
2021/09/30 06:58:47;;;;;;;2.60;0.98;;;;;;;;;;5029277;28;20581;-40
2021/09/30 07:01:49;;;;;;;3.25;1.10;;;;;;;;;;4996396;28;20144;-40
2021/09/30 07:04:36;;;;;;;2.45;1.10;;;;;;;;;;5031195;28;20053;-40
2021/09/30 07:07:08;;;;;;;;;;;;;;;;;;5031663;28;20049;-41
2021/09/30 07:09:35;;;;;;;5.05;1.02;;;;;;;;;;5028697;28;20011;-41
2021/09/30 07:12:02;;;;;;;5.57;1.00;;;;;;;;;;5030463;28;20416;-40
2021/09/30 07:14:29;;;;;;;5.10;1.02;;;;;;;;;;5021624;28;20038;-40
2021/09/30 07:17:01;;;;;;;1.70;1.10;;;;;;;;;;5049307;28;20041;-40
2021/09/30 07:19:28;;;;;;;2.05;1.00;;;;;;;;;;5029195;28;20045;-40
2021/09/30 07:21:54;;;;;;;3.17;1.00;;;;;;;;;;5031160;28;20095;-41
2021/09/30 07:24:21;;;;;;;2.13;0.80;;;;;;;;;;5014485;28;20073;-42
2021/09/30 07:26:48;;;;;;;4.78;1.05;;;;;;;;;;5028584;28;20049;-41
2021/09/30 07:29:15;;;;;;;3.50;1.00;;;;;;;;;;5030771;28;20042;-41
2021/09/30 07:31:42;;;;;;;2.75;1.08;;;;;;;;;;5054795;28;20069;-42
2021/09/30 07:34:11;;;;;;;4.88;1.00;;;;;;;;;;5048052;28;20116;-41
2021/09/30 07:36:39;;;;;;;2.63;1.08;;;;;;;;;;5033704;28;20045;-42
2021/09/30 07:39:06;;;;;;;6.65;1.00;;;;;;;;;;5026491;28;20037;-42
2021/09/30 07:41:34;;;;;;;5.50;1.33;;;;;;;;;;5029655;28;20109;-41
2021/09/30 07:44:03;;;;;;;6.40;1.25;;;;;;;;;;5029965;28;20042;-41
2021/09/30 07:46:31;;;;;;;3.05;0.93;;;;;;;;;;5031207;28;20429;-42
2021/09/30 07:48:58;;;;;;;2.17;1.05;;;;;;;;;;5032330;28;20099;-41
2021/09/30 07:51:25;;;;;;;4.30;1.13;;;;;;;;;;5015759;28;20055;-41
2021/09/30 07:53:52;;;;;;;2.15;1.05;;;;;;;;;;5029303;28;20407;-43
2021/09/30 07:56:18;;;;;;;1.92;0.93;;;;;;;;;;5028854;28;20041;-40
2021/09/30 07:58:45;;;;;;;4.35;0.90;;;;;;;;;;5019204;28;20050;-42
2021/09/30 08:01:12;;;;;;;1.55;0.90;;;;;;;;;;5040940;28;20376;-41
2021/09/30 08:03:39;;;;;;;2.40;1.00;;;;;;;;;;5031268;28;20099;-42
2021/09/30 08:06:06;;;;;;;3.55;1.10;;;;;;;;;;5031013;28;20505;-41
2021/09/30 08:08:52;;;;;;;4.45;1.10;;;;;;;;;;5031566;28;20053;-41
2021/09/30 08:11:19;;;;;;;8.70;1.35;;;;;;;;;;5029207;28;20140;-41
2021/09/30 08:13:45;;;;;;;2.78;0.90;;;;;;;;;;5029619;28;20406;-42
2021/09/30 08:16:14;;;;;;;5.97;1.10;;;;;;;;;;5029808;28;20061;-41
2021/09/30 08:18:41;;;;;;;3.88;0.93;;;;;;;;;;5031015;28;20582;-44
2021/09/30 08:21:12;;;;;;;2.83;0.90;;;;;;;;;;5030066;28;20041;-41
2021/09/30 08:23:41;;;;;;;1.90;1.00;;;;;;;;;;5029614;28;20499;-41
2021/09/30 08:26:08;;;;;;;3.20;1.00;;;;;;;;;;5031166;28;20132;-43
2021/09/30 08:28:36;;;;;;;3.80;1.08;;;;;;;;;;5029569;28;20069;-43
2021/09/30 08:31:04;;;;;;;1.70;0.88;;;;;;;;;;5023269;28;20042;-41
2021/09/30 08:33:32;;;;;;;3.92;0.80;;;;;;;;;;5058819;28;20041;-42
2021/09/30 08:35:59;;;;;;;5.55;1.00;;;;;;;;;;5025283;28;20090;-43
2021/09/30 08:38:26;;;;;;;3.55;0.90;;;;;;;;;;5044653;28;20107;-41
2021/09/30 08:40:53;;;;;;;7.60;0.95;;;;;;;;;;5035290;28;20487;-40
2021/09/30 08:43:20;;;;;;;2.78;0.90;;;;;;;;;;5045746;28;20061;-41
2021/09/30 08:45:47;;;;;;;1.25;0.80;;;;;;;;;;5035032;28;20132;-41
2021/09/30 08:48:15;;;;;;;3.03;1.05;;;;;;;;;;5027071;28;20046;-40
2021/09/30 08:50:41;;;;;;;5.55;1.00;;;;;;;;;;5015163;28;20072;-40
2021/09/30 08:53:09;;;;;;;3.90;0.90;;;;;;;;;;5017833;28;20045;-40
2021/09/30 08:55:38;;;;;;;5.45;0.93;;;;;;;;;;5032533;28;20441;-41
2021/09/30 08:58:05;;;;;;;4.15;1.00;;;;;;;;;;5033370;28;20355;-40
2021/09/30 09:00:34;;;;;;;2.65;0.80;;;;;;;;;;5033491;28;20060;-45
2021/09/30 09:03:01;;;;;;;3.67;0.68;;;;;;;;;;5031665;28;20033;-41
2021/09/30 09:05:28;;;;;;;2.78;2.00;;;;;;;;;;5032656;28;20056;-41
2021/09/30 09:07:56;;;;;;;3.17;0.77;;;;;;;;;;5042437;28;20128;-41
2021/09/30 09:10:24;;;;;;;3.05;1.08;;;;;;;;;;5031656;28;20048;-41
2021/09/30 09:13:09;;;;;;;1.80;0.82;;;;;;;;;;5031658;28;20075;-41
2021/09/30 09:15:46;;;;;;;3.33;1.00;;;;;;;;;;5014539;28;20049;-42
2021/09/30 09:18:15;;;;;;;3.58;0.82;;;;;;;;;;5032356;28;20041;-43
2021/09/30 09:20:59;;;;;;;2.55;1.00;;;;;;;;;;5032855;28;20087;-43
2021/09/30 09:23:26;;;;;;;5.32;0.95;;;;;;;;;;5032516;28;20484;-41
2021/09/30 09:26:19;;;;;;;3.53;0.80;;;;;;;;;;5029056;28;20419;-48
2021/09/30 09:29:02;;;;;;;4.07;0.70;;;;;;;;;;5031225;28;20175;-44
2021/09/30 09:31:30;;;;;;;3.05;1.10;;;;;;;;;;5033407;28;20045;-42
2021/09/30 09:33:56;;;;;;;2.88;0.73;;;;;;;;;;5025229;28;20042;-44
2021/09/30 09:36:26;;;;;;;7.97;1.48;;;;;;;;;;5012300;28;20046;-41
2021/09/30 09:38:56;;;;;;;1.70;0.80;;;;;;;;;;5047013;28;20072;-46
2021/09/30 09:41:29;;;;;;;4.00;0.80;;;;;;;;;;5026620;28;20041;-44
2021/09/30 09:44:00;;;;;;;2.47;0.95;;;;;;;;;;5029642;28;20060;-44
2021/09/30 09:46:28;;;;;;;2.58;0.80;;;;;;;;;;5025282;28;20034;-44
2021/09/30 09:48:55;;;;;;;1.52;0.80;;;;;;;;;;5023442;28;20042;-46
2021/09/30 09:51:22;;;;;;;2.88;0.85;;;;;;;;;;5019917;28;20387;-44
2021/09/30 09:53:56;;;;;;;3.88;0.95;;;;;;;;;;5031068;28;20491;-43
2021/09/30 09:56:23;;;;;;;2.97;0.70;;;;;;;;;;5030362;28;20156;-42
2021/09/30 09:58:55;;;;;;;2.63;1.00;;;;;;;;;;5027081;28;20041;-42
2021/09/30 10:01:27;;;;;;;4.10;0.70;;;;;;;;;;5038423;28;20502;-42
2021/09/30 10:03:59;;;;;;;2.20;0.77;;;;;;;;;;5044610;28;20045;-42
2021/09/30 10:06:27;;;;;;;3.60;1.00;;;;;;;;;;5043756;28;20094;-44
2021/09/30 10:08:54;;;;;;;4.90;0.90;;;;;;;;;;5019856;28;20140;-47
2021/09/30 10:11:21;;;;;;;2.13;0.80;;;;;;;;;;5019429;28;20411;-46
2021/09/30 10:13:48;;;;;;;2.08;0.80;;;;;;;;;;5012996;28;20104;-43
2021/09/30 10:16:16;;;;;;;4.43;0.70;;;;;;;;;;5031918;28;20091;-43
2021/09/30 10:18:59;;;;;;;3.63;0.80;;;;;;;;;;5027146;28;20084;-42
2021/09/30 10:21:27;;;;;;;3.38;1.00;;;;;;;;;;5028905;28;20041;-41
2021/09/30 10:23:57;;;;;;;2.35;0.73;;;;;;;;;;5045101;28;20128;-43
2021/09/30 10:26:35;;;;;;;2.47;0.60;;;;;;;;;;5030819;28;20059;-43
2021/09/30 10:29:03;;;;;;;3.63;0.80;;;;;;;;;;5031424;28;20049;-41
2021/09/30 10:31:35;;;;;;;2.92;0.70;;;;;;;;;;5034469;28;20125;-43
2021/09/30 10:34:07;;;;;;;1.98;0.70;;;;;;;;;;5028744;28;20037;-45
2021/09/30 10:36:36;;;;;;;3.30;0.65;;;;;;;;;;5031998;28;20364;-43
2021/09/30 10:39:22;;;;;;;2.47;0.63;;;;;;;;;;5019421;28;20038;-42
2021/09/30 10:41:50;;;;;;;4.72;0.70;;;;;;;;;;5031581;28;20051;-43
2021/09/30 10:44:21;;;;;;;2.05;1.02;;;;;;;;;;5030778;28;20479;-42
2021/09/30 10:46:49;;;;;;;4.38;0.73;;;;;;;;;;5029504;28;20129;-44
2021/09/30 10:49:47;;;;;;;2.38;0.60;;;;;;;;;;5026153;28;20092;-45
2021/09/30 10:52:14;;;;;;;2.22;0.75;;;;;;;;;;5023458;28;20457;-44
2021/09/30 10:54:51;;;;;;;2.63;0.80;;;;;;;;;;5028900;28;20111;-44
2021/09/30 10:57:35;;;;;;;3.55;0.70;;;;;;;;;;5011847;28;20045;-43
2021/09/30 11:00:04;;;;;;;1.58;0.68;;;;;;;;;;5024058;28;20033;-45
2021/09/30 11:03:13;;;;;;;2.15;0.90;;;;;;;;;;5029805;28;20041;-44
2021/09/30 11:05:44;;;;;;;0.95;0.50;;;;;;;;;;5024943;28;20130;-42
2021/09/30 11:08:27;;;;;;;2.90;0.60;;;;;;;;;;5030461;28;20512;-42
2021/09/30 11:11:06;;;;;;;2.63;0.63;;;;;;;;;;5030267;28;20049;-44
2021/09/30 11:13:33;;;;;;;2.47;0.60;;;;;;;;;;5042474;28;20068;-45
2021/09/30 11:16:03;;;;;;;2.38;0.90;;;;;;;;;;5031410;28;20108;-43
2021/09/30 11:18:43;;;;;;;4.00;0.95;;;;;;;;;;5023723;28;20034;-42
2021/09/30 11:21:32;;;;;;;2.60;0.93;;;;;;;;;;5025915;28;20073;-42
2021/09/30 11:24:03;;;;;;;1.60;0.80;;;;;;;;;;5028602;28;20053;-42
2021/09/30 11:26:34;;;;;;;3.42;0.90;;;;;;;;;;5022130;28;20068;-41
2021/09/30 11:29:23;;;;;;;1.58;0.77;;;;;;;;;;5026679;28;20053;-42
2021/09/30 11:32:18;;;;;;;2.45;0.90;;;;;;;;;;5031787;28;20065;-43
2021/09/30 11:34:50;;;;;;;4.25;0.70;;;;;;;;;;5038133;28;20198;-42
2021/09/30 11:37:19;;;;;;;1.88;0.80;;;;;;;;;;5025478;28;20038;-42
2021/09/30 11:39:50;;;;;;;3.35;0.70;;;;;;;;;;5023933;28;20045;-41
2021/09/30 11:42:18;;;;;;;2.47;0.70;;;;;;;;;;5029990;28;20125;-41
2021/09/30 11:45:00;;;;;;;5.25;2.40;;;;;;;;;;5029083;28;20045;-39
2021/09/30 11:47:28;;;;;;;4.30;0.80;;;;;;;;;;5027276;28;20068;-42
2021/09/30 11:49:56;;;;;;;1.88;0.82;;;;;;;;;;5014387;28;20430;-41
2021/09/30 11:52:22;;;;;;;2.95;0.80;;;;;;;;;;5017392;28;20072;-40
2021/09/30 11:54:49;;;;;;;3.60;0.50;;;;;;;;;;5028892;28;20037;-41
2021/09/30 11:57:17;;;;;;;1.20;0.60;;;;;;;;;;5026307;28;20133;-46
2021/09/30 11:59:44;;;;;;;2.10;0.75;;;;;;;;;;5028992;28;20411;-44
2021/09/30 12:02:12;;;;;;;3.45;0.80;;;;;;;;;;5028806;28;20041;-41
2021/09/30 12:04:51;;;;;;;1.65;0.55;;;;;;;;;;5029860;28;20455;-49
2021/09/30 12:07:19;;;;;;;1.90;0.80;;;;;;;;;;5029825;28;20038;-41
2021/09/30 12:09:47;;;;;;;2.63;1.10;;;;;;;;;;5029452;28;20132;-41
2021/09/30 12:12:15;;;;;;;2.08;0.73;;;;;;;;;;5030899;28;20037;-41
2021/09/30 12:14:43;;;;;;;4.65;0.93;;;;;;;;;;5024074;28;20037;-41
2021/09/30 12:17:12;;;;;;;1.95;0.73;;;;;;;;;;5023721;28;20046;-41
2021/09/30 12:19:49;;;;;;;2.50;0.70;;;;;;;;;;5026297;28;20049;-43
2021/09/30 12:22:19;;;;;;;2.78;0.90;;;;;;;;;;5033027;28;20038;-41
2021/09/30 12:24:48;;;;;;;3.05;0.70;;;;;;;;;;5030701;28;20474;-42
2021/09/30 12:27:16;;;;;;;1.98;0.63;;;;;;;;;;5029100;28;20577;-45
2021/09/30 12:29:47;;;;;;;5.82;0.95;;;;;;;;;;5028693;28;20042;-40
2021/09/30 12:32:19;;;;;;;1.73;0.77;;;;;;;;;;5034072;28;20045;-42
2021/09/30 12:35:06;;;;;;;3.53;1.00;;;;;;;;;;5037198;28;20045;-42
2021/09/30 12:37:33;;;;;;;2.53;0.82;;;;;;;;;;5036205;28;20061;-41
2021/09/30 12:40:12;;;;;;;2.03;0.77;;;;;;;;;;5019519;28;20137;-44
2021/09/30 12:42:40;;;;;;;2.47;0.70;;;;;;;;;;5026899;28;20045;-41
2021/09/30 12:45:07;;;;;;;1.33;0.60;;;;;;;;;;5034718;28;20049;-42
2021/09/30 12:47:38;;;;;;;3.35;0.80;;;;;;;;;;5031168;28;20038;-43
2021/09/30 12:50:07;;;;;;;2.28;0.65;;;;;;;;;;5025959;28;20056;-43
2021/09/30 12:52:35;;;;;;;3.40;0.95;;;;;;;;;;5029096;28;20042;-43
2021/09/30 12:55:03;;;;;;;1.65;0.70;;;;;;;;;;5034923;28;20136;-42
2021/09/30 12:57:31;;;;;;;5.28;1.52;;;;;;;;;;5027892;28;20460;-42
2021/09/30 13:00:10;;;;;;;2.67;0.80;;;;;;;;;;5015451;28;20092;-43
2021/09/30 13:02:38;;;;;;;4.15;1.10;;;;;;;;;;5014857;28;20067;-39
2021/09/30 13:05:05;;;;;;;3.92;0.88;;;;;;;;;;5013969;28;20050;-41
2021/09/30 13:07:44;;;;;;;1.95;0.63;;;;;;;;;;5037457;28;20090;-40
2021/09/30 13:10:12;;;;;;;4.00;0.85;;;;;;;;;;5036041;28;20123;-40
2021/09/30 13:12:39;;;;;;;3.05;0.70;;;;;;;;;;5017393;28;20244;-41
2021/09/30 13:15:06;;;;;;;2.63;0.95;;;;;;;;;;5033272;28;20048;-41
2021/09/30 13:17:34;;;;;;;5.15;1.27;;;;;;;;;;5023127;28;20042;-40
2021/09/30 13:20:06;;;;;;;3.22;1.15;;;;;;;;;;5032270;28;20152;-40
2021/09/30 13:22:34;;;;;;;2.30;0.80;;;;;;;;;;5027116;28;20030;-40
2021/09/30 13:25:04;;;;;;;2.58;0.70;;;;;;;;;;5013958;28;20042;-40
2021/09/30 13:27:34;;;;;;;2.15;1.08;;;;;;;;;;5034026;28;20068;-41
2021/09/30 13:30:06;;;;;;;4.25;1.08;;;;;;;;;;5032829;28;20057;-41
2021/09/30 13:32:33;;;;;;;4.20;1.10;;;;;;;;;;5033772;28;20460;-45
2021/09/30 13:35:00;;;;;;;2.22;1.05;;;;;;;;;;5031847;28;20120;-43
2021/09/30 13:37:28;;;;;;;4.10;0.70;;;;;;;;;;5031607;28;20056;-44
2021/09/30 13:39:56;;;;;;;2.85;1.05;;;;;;;;;;5031662;28;20495;-47
2021/09/30 13:42:24;;;;;;;1.60;0.73;;;;;;;;;;5032822;28;20103;-47
2021/09/30 13:44:50;;;;;;;2.30;0.85;;;;;;;;;;5031026;28;20033;-43
2021/09/30 13:47:17;;;;;;;2.92;0.90;;;;;;;;;;5030588;28;20067;-44
2021/09/30 13:49:44;;;;;;;1.77;0.73;;;;;;;;;;5022419;28;20129;-42
2021/09/30 13:52:11;;;;;;;0.93;0.60;;;;;;;;;;5029357;28;20520;-41
2021/09/30 13:54:39;;;;;;;3.92;1.02;;;;;;;;;;5021225;28;20604;-43
2021/09/30 13:57:06;;;;;;;3.88;0.90;;;;;;;;;;5030696;28;20942;-44
2021/09/30 13:59:32;;;;;;;3.25;0.80;;;;;;;;;;5031786;28;20143;-42
2021/09/30 14:02:19;;;;;;;3.30;0.85;;;;;;;;;;5028246;28;20037;-42
2021/09/30 14:04:46;;;;;;;1.25;0.70;;;;;;;;;;5030298;28;20041;-41
2021/09/30 14:07:13;;;;;;;4.25;0.90;;;;;;;;;;5030207;28;20061;-39
2021/09/30 14:09:40;;;;;;;2.25;0.82;;;;;;;;;;5031851;28;20406;-39
2021/09/30 14:12:07;;;;;;;4.22;0.82;;;;;;;;;;5047417;28;20144;-39
2021/09/30 14:14:34;;;;;;;2.60;0.70;;;;;;;;;;5031245;28;20380;-39
2021/09/30 14:17:01;;;;;;;3.15;0.90;;;;;;;;;;5030546;28;20460;-39
2021/09/30 14:19:28;;;;;;;3.28;1.30;;;;;;;;;;5026892;28;20116;-39
2021/09/30 14:21:56;;;;;;;4.97;0.93;;;;;;;;;;5030295;28;20065;-41
2021/09/30 14:24:24;;;;;;;4.22;0.80;;;;;;;;;;5027340;28;20344;-41
2021/09/30 14:26:51;;;;;;;2.00;0.80;;;;;;;;;;5020118;28;20499;-40
2021/09/30 14:29:18;;;;;;;2.47;0.90;;;;;;;;;;5027855;28;20045;-41
2021/09/30 14:31:44;;;;;;;3.28;1.00;;;;;;;;;;5040055;28;20120;-41
2021/09/30 14:34:12;;;;;;;4.43;0.77;;;;;;;;;;5024759;28;20052;-41
2021/09/30 14:36:39;;;;;;;4.35;1.17;;;;;;;;;;5025800;28;20137;-41
2021/09/30 14:39:06;;;;;;;6.50;1.67;;;;;;;;;;5029502;28;20398;-42
2021/09/30 14:41:34;;;;;;;4.57;0.80;;;;;;;;;;5026984;28;20041;-40
2021/09/30 14:44:02;;;;;;;3.53;1.45;;;;;;;;;;5026821;28;20784;-40
2021/09/30 14:46:29;;;;;;;3.95;1.02;;;;;;;;;;5023531;28;20033;-42
2021/09/30 14:48:55;;;;;;;3.05;0.73;;;;;;;;;;5031331;28;20077;-41
2021/09/30 14:51:22;;;;;;;2.72;0.70;;;;;;;;;;5028252;28;20502;-43
2021/09/30 14:53:49;;;;;;;3.00;0.73;;;;;;;;;;5026557;28;20041;-43
2021/09/30 14:56:16;;;;;;;1.55;0.82;;;;;;;;;;5028935;28;20042;-46
2021/09/30 14:58:42;;;;;;;2.38;1.10;;;;;;;;;;5027774;28;20045;-42
2021/09/30 15:01:09;;;;;;;3.17;0.60;;;;;;;;;;5027875;28;20487;-41
2021/09/30 15:03:36;;;;;;;2.97;0.80;;;;;;;;;;5031273;28;20088;-42
2021/09/30 15:06:09;;;;;;;3.97;0.80;;;;;;;;;;5029597;28;21119;-40
2021/09/30 15:08:36;;;;;;;;;;;;;;;;;;5026718;28;20057;-41
2021/09/30 15:11:03;;;;;;;2.25;0.90;;;;;;;;;;5039340;28;20020;-41
2021/09/30 15:13:30;;;;;;;1.80;0.80;;;;;;;;;;5025523;28;20109;-44
2021/09/30 15:15:58;;;;;;;5.40;0.90;;;;;;;;;;5029303;28;20060;-41
2021/09/30 15:18:49;;;;;;;2.08;0.85;;;;;;;;;;5023719;28;20323;-40
2021/09/30 15:21:21;;;;;;;6.65;1.30;;;;;;;;;;5030984;28;20137;-40
2021/09/30 15:23:47;;;;;;;;;;;;;;;;;;5027577;28;20089;-41
2021/09/30 15:26:16;;;;;;;5.05;0.90;;;;;;;;;;5022848;28;19920;-41
2021/09/30 15:28:43;;;;;;;2.17;0.70;;;;;;;;;;5028429;28;20052;-42
2021/09/30 15:31:10;;;;;;;3.42;0.63;;;;;;;;;;5025699;28;20040;-42
2021/09/30 15:33:37;;;;;;;2.70;0.85;;;;;;;;;;5030282;28;20155;-41
2021/09/30 15:36:04;;;;;;;3.25;0.60;;;;;;;;;;5028140;28;20100;-41
2021/09/30 15:38:31;;;;;;;1.48;0.70;;;;;;;;;;5031580;28;20213;-44
2021/09/30 15:40:58;;;;;;;3.38;0.60;;;;;;;;;;5030289;28;20531;-40
2021/09/30 15:43:44;;;;;;;3.42;0.80;;;;;;;;;;5029528;28;20490;-40
2021/09/30 15:46:11;;;;;;;2.28;0.82;;;;;;;;;;5029587;28;20125;-42
2021/09/30 15:48:38;;;;;;;2.47;0.70;;;;;;;;;;5023544;28;20056;-42
2021/09/30 15:51:06;;;;;;;1.42;0.77;;;;;;;;;;5026621;28;20041;-42
2021/09/30 15:53:32;;;;;;;2.88;0.65;;;;;;;;;;5027152;28;20088;-42
2021/09/30 15:56:02;;;;;;;5.68;0.90;;;;;;;;;;5027402;28;20112;-46
2021/09/30 15:58:29;;;;;;;3.10;0.80;;;;;;;;;;5025467;28;20037;-43
2021/09/30 16:00:55;;;;;;;3.88;0.80;;;;;;;;;;5041367;28;20116;-42
2021/09/30 16:03:23;;;;;;;2.97;0.77;;;;;;;;;;5027166;28;20057;-41
2021/09/30 16:05:49;;;;;;;1.67;0.60;;;;;;;;;;5026233;28;20057;-40
2021/09/30 16:08:16;;;;;;;2.60;0.90;;;;;;;;;;5031544;28;20121;-40
2021/09/30 16:10:43;;;;;;;1.13;0.60;;;;;;;;;;5028967;28;20100;-41
2021/09/30 16:13:10;;;;;;;4.18;1.33;;;;;;;;;;5032533;28;20033;-41
2021/09/30 16:15:37;;;;;;;2.22;0.82;;;;;;;;;;5035343;28;20042;-48
2021/09/30 16:18:04;;;;;;;3.55;1.20;;;;;;;;;;5034830;28;20041;-41
2021/09/30 16:20:31;;;;;;;3.00;0.70;;;;;;;;;;5021456;28;20146;-42
2021/09/30 16:22:58;;;;;;;1.65;0.85;;;;;;;;;;5031521;28;20626;-45
2021/09/30 16:25:25;;;;;;;4.28;0.90;;;;;;;;;;5021624;28;20034;-43
2021/09/30 16:27:52;;;;;;;1.38;0.60;;;;;;;;;;5032085;28;20050;-47
2021/09/30 16:30:19;;;;;;;2.03;0.95;;;;;;;;;;5035720;28;20056;-42
2021/09/30 16:32:47;;;;;;;3.70;0.90;;;;;;;;;;5023414;28;20880;-43
2021/09/30 16:35:14;;;;;;;3.75;0.90;;;;;;;;;;5031981;28;20049;-42
2021/09/30 16:37:41;;;;;;;3.33;1.17;;;;;;;;;;5021873;28;20048;-42
2021/09/30 16:40:08;;;;;;;2.42;0.90;;;;;;;;;;5023084;28;20120;-43
2021/09/30 16:42:36;;;;;;;2.30;0.80;;;;;;;;;;5024463;28;20136;-45
2021/09/30 16:45:06;;;;;;;2.67;0.90;;;;;;;;;;5031862;28;20045;-43
2021/09/30 16:47:33;;;;;;;1.63;0.70;;;;;;;;;;5029872;28;20138;-41
2021/09/30 16:50:00;;;;;;;2.22;0.73;;;;;;;;;;5042065;28;20485;-41
2021/09/30 16:52:29;;;;;;;2.25;0.80;;;;;;;;;;5031491;28;20069;-45
2021/09/30 16:54:56;;;;;;;2.17;0.70;;;;;;;;;;5031037;28;20435;-46
2021/09/30 16:57:23;;;;;;;2.40;0.73;;;;;;;;;;5027778;28;20127;-50
2021/09/30 16:59:50;;;;;;;2.15;0.98;;;;;;;;;;5030405;28;20133;-50
2021/09/30 17:02:18;;;;;;;3.25;1.35;;;;;;;;;;5030931;28;20136;-47
2021/09/30 17:04:45;;;;;;;3.90;1.10;;;;;;;;;;5022641;28;20096;-44
2021/09/30 17:07:12;;;;;;;1.65;0.88;;;;;;;;;;5028591;28;20077;-45
2021/09/30 17:09:39;;;;;;;2.60;0.82;;;;;;;;;;5024103;28;20041;-47
2021/09/30 17:12:06;;;;;;;2.63;0.85;;;;;;;;;;5046170;28;20495;-45
2021/09/30 17:14:33;;;;;;;2.22;0.80;;;;;;;;;;5018991;28;20132;-46
2021/09/30 17:17:00;;;;;;;4.00;1.05;;;;;;;;;;5030219;28;20482;-44
2021/09/30 17:19:32;;;;;;;2.38;1.20;;;;;;;;;;5025326;28;20033;-44
2021/09/30 17:22:01;;;;;;;2.17;1.08;;;;;;;;;;5032676;28;20033;-45
2021/09/30 17:24:32;;;;;;;4.90;0.80;;;;;;;;;;5027968;28;20124;-44
2021/09/30 17:27:00;;;;;;;1.92;0.70;;;;;;;;;;5030735;28;20471;-46
2021/09/30 17:29:28;;;;;;;3.75;1.10;;;;;;;;;;5029287;28;20041;-45
2021/09/30 17:31:56;;;;;;;2.83;0.73;;;;;;;;;;5027322;28;20045;-45
2021/09/30 17:34:23;;;;;;;2.92;1.00;;;;;;;;;;5029423;28;20464;-45
2021/09/30 17:36:50;;;;;;;3.20;0.82;;;;;;;;;;5021459;28;20095;-45
2021/09/30 17:39:17;;;;;;;3.30;1.00;;;;;;;;;;5024987;28;20133;-45
2021/09/30 17:41:44;;;;;;;3.80;1.10;;;;;;;;;;5027948;28;20045;-45
2021/09/30 17:44:11;;;;;;;5.13;1.13;;;;;;;;;;5030478;28;20125;-44
2021/09/30 17:46:38;;;;;;;5.07;1.48;;;;;;;;;;5040353;28;20509;-44
2021/09/30 17:49:05;;;;;;;2.35;1.10;;;;;;;;;;5024809;28;20081;-45
2021/09/30 17:51:32;;;;;;;3.72;1.40;;;;;;;;;;5024448;28;20041;-48
2021/09/30 17:53:58;;;;;;;3.55;1.13;;;;;;;;;;5022637;28;20037;-45
2021/09/30 17:56:25;;;;;;;4.90;1.52;;;;;;;;;;5028629;28;20065;-47
2021/09/30 17:58:52;;;;;;;2.78;1.38;;;;;;;;;;5023948;28;20495;-47
2021/09/30 18:01:21;;;;;;;5.50;1.88;;;;;;;;;;5029557;28;20048;-47